createdAt,value
2024-03-30T00:00:46.482Z,2.5150
2024-03-30T00:01:48.080Z,2.4825
2024-03-30T00:02:49.556Z,2.5604
2024-03-30T00:03:51.043Z,2.6250
2024-03-30T00:04:52.626Z,2.6967
2024-03-30T00:05:54.134Z,2.2605
2024-03-30T00:06:55.652Z,2.7235
2024-03-30T00:07:57.290Z,3.1611
2024-03-30T00:08:58.711Z,2.4968
2024-03-30T00:10:00.226Z,2.6425
2024-03-30T00:11:01.762Z,2.6723
2024-03-30T00:12:03.320Z,2.9178
2024-03-30T00:13:04.826Z,2.4364
2024-03-30T00:14:06.366Z,1.9539
2024-03-30T00:15:07.960Z,2.6144
2024-03-30T00:16:09.411Z,2.6508
2024-03-30T00:17:10.971Z,2.4335
2024-03-30T00:18:12.482Z,2.4472
2024-03-30T00:19:13.993Z,2.2545
2024-03-30T00:20:15.548Z,2.2146
2024-03-30T00:21:17.068Z,2.3326
2024-03-30T00:22:18.570Z,2.5915
2024-03-30T00:23:20.107Z,2.7148
2024-03-30T00:24:21.714Z,2.6228
2024-03-30T00:25:23.160Z,2.6688
2024-03-30T00:26:24.696Z,2.4806
2024-03-30T00:27:26.244Z,2.7759
2024-03-30T00:28:27.767Z,2.5694
2024-03-30T00:29:29.361Z,2.7972
2024-03-30T00:30:30.819Z,2.6557
2024-03-30T00:31:32.364Z,2.2901
2024-03-30T00:32:33.890Z,2.1320
2024-03-30T00:33:35.411Z,2.4767
2024-03-30T00:34:36.943Z,2.3678
2024-03-30T00:35:38.467Z,2.5597
2024-03-30T00:36:40.081Z,2.8217
2024-03-30T00:37:41.524Z,2.3544
2024-03-30T00:38:43.052Z,2.5412
2024-03-30T00:39:44.588Z,2.6426
2024-03-30T00:40:46.764Z,2.6706
2024-03-30T00:41:47.688Z,2.7148
2024-03-30T00:43:00.373Z,2.5003
2024-03-30T00:43:50.726Z,2.1971
2024-03-30T00:44:52.277Z,2.3105
2024-03-30T00:45:53.754Z,2.3742
2024-03-30T00:46:55.302Z,2.7647
2024-03-30T00:47:56.862Z,2.5536
2024-03-30T00:48:58.365Z,2.6015
2024-03-30T00:49:59.894Z,2.4900
2024-03-30T00:51:01.426Z,2.3664
2024-03-30T00:52:02.933Z,2.4517
2024-03-30T00:53:04.471Z,2.6128
2024-03-30T00:54:06.001Z,2.4404
2024-03-30T00:55:07.609Z,2.3426
2024-03-30T00:56:09.079Z,2.5715
2024-03-30T00:57:10.587Z,2.4207
2024-03-30T00:58:12.129Z,2.5108
2024-03-30T00:59:13.732Z,2.4790
2024-03-30T01:00:15.182Z,2.3151
2024-03-30T01:01:16.713Z,2.3915
2024-03-30T01:02:18.242Z,2.2958
2024-03-30T01:03:19.859Z,2.3908
2024-03-30T01:04:21.317Z,2.6699
2024-03-30T01:05:22.833Z,2.5350
2024-03-30T01:06:24.439Z,2.6417
2024-03-30T01:07:25.981Z,2.3145
2024-03-30T01:08:27.439Z,2.4615
2024-03-30T01:09:28.950Z,2.4758
2024-03-30T01:10:30.531Z,2.4920
2024-03-30T01:11:32.027Z,2.4483
2024-03-30T01:12:33.575Z,2.3033
2024-03-30T01:13:35.099Z,2.5739
2024-03-30T01:14:36.614Z,2.4341
2024-03-30T01:15:38.230Z,2.4699
2024-03-30T01:16:42.233Z,2.4720
2024-03-30T01:17:41.224Z,2.3474
2024-03-30T01:18:42.732Z,2.4147
2024-03-30T01:19:44.377Z,2.5670
2024-03-30T01:20:45.804Z,2.4345
2024-03-30T01:21:47.316Z,2.1262
2024-03-30T01:22:48.834Z,2.4089
2024-03-30T01:23:50.390Z,2.5924
2024-03-30T01:24:51.928Z,2.3550
2024-03-30T01:25:53.518Z,2.0468
2024-03-30T01:26:54.976Z,2.4676
2024-03-30T01:27:56.510Z,2.5319
2024-03-30T01:28:58.051Z,2.5345
2024-03-30T01:29:59.561Z,2.3203
2024-03-30T01:31:01.125Z,2.4449
2024-03-30T01:32:02.653Z,2.1001
2024-03-30T01:33:04.161Z,2.4325
2024-03-30T01:34:05.681Z,2.4363
2024-03-30T01:35:07.213Z,2.3733
2024-03-30T01:36:08.751Z,2.0806
2024-03-30T01:37:10.364Z,2.7265
2024-03-30T01:38:11.822Z,2.1984
2024-03-30T01:39:13.317Z,2.4277
2024-03-30T01:40:14.877Z,2.6523
2024-03-30T01:41:16.396Z,2.1900
2024-03-30T01:42:17.927Z,2.5240
2024-03-30T01:43:19.438Z,2.5636
2024-03-30T01:44:21.039Z,2.2588
2024-03-30T01:45:22.525Z,2.3349
2024-03-30T01:46:24.033Z,2.1640
2024-03-30T01:47:25.594Z,2.1682
2024-03-30T01:48:27.093Z,2.3797
2024-03-30T01:49:28.623Z,2.0793
2024-03-30T01:50:30.159Z,2.4316
2024-03-30T01:51:31.698Z,2.1520
2024-03-30T01:52:33.320Z,2.5628
2024-03-30T01:53:44.037Z,2.2677
2024-03-30T01:54:36.290Z,2.5708
2024-03-30T01:55:37.855Z,2.4345
2024-03-30T01:56:39.328Z,2.3416
2024-03-30T01:57:40.874Z,2.0275
2024-03-30T01:58:42.414Z,2.1286
2024-03-30T01:59:43.943Z,2.4285
2024-03-30T02:00:45.446Z,2.3881
2024-03-30T02:01:47.091Z,2.3516
2024-03-30T02:02:48.528Z,2.4672
2024-03-30T02:03:50.027Z,1.9813
2024-03-30T02:04:51.580Z,2.5446
2024-03-30T02:05:53.096Z,2.6347
2024-03-30T02:06:54.644Z,2.3262
2024-03-30T02:07:56.223Z,2.5298
2024-03-30T02:08:57.693Z,2.5145
2024-03-30T02:09:59.220Z,2.3020
2024-03-30T02:11:00.737Z,2.2834
2024-03-30T02:12:02.274Z,2.3659
2024-03-30T02:13:03.816Z,2.2111
2024-03-30T02:14:05.333Z,2.2030
2024-03-30T02:15:06.851Z,2.1415
2024-03-30T02:16:08.447Z,2.2671
2024-03-30T02:17:09.937Z,2.3355
2024-03-30T02:18:11.457Z,2.2138
2024-03-30T02:19:12.974Z,2.3708
2024-03-30T02:20:14.502Z,2.2587
2024-03-30T02:21:16.064Z,2.2640
2024-03-30T02:22:17.622Z,2.1929
2024-03-30T02:23:19.106Z,2.3213
2024-03-30T02:24:20.608Z,1.9893
2024-03-30T02:25:22.239Z,2.2960
2024-03-30T02:26:23.667Z,2.2133
2024-03-30T02:27:25.250Z,2.4266
2024-03-30T02:28:26.728Z,2.2933
2024-03-30T02:29:28.360Z,1.9690
2024-03-30T02:30:29.802Z,2.2442
2024-03-30T02:31:31.308Z,2.1164
2024-03-30T02:32:32.856Z,2.1098
2024-03-30T02:33:34.386Z,2.0180
2024-03-30T02:34:35.904Z,2.4169
2024-03-30T02:35:37.452Z,2.1012
2024-03-30T02:36:38.976Z,2.0335
2024-03-30T02:37:40.500Z,1.7909
2024-03-30T02:38:42.134Z,2.1657
2024-03-30T02:39:43.553Z,2.3203
2024-03-30T02:40:45.094Z,2.0796
2024-03-30T02:41:46.625Z,2.0852
2024-03-30T02:42:48.136Z,2.1278
2024-03-30T02:43:49.679Z,2.2469
2024-03-30T02:44:51.205Z,2.2841
2024-03-30T02:45:52.738Z,1.6464
2024-03-30T02:46:54.286Z,1.8037
2024-03-30T02:47:55.802Z,2.1628
2024-03-30T02:48:57.326Z,1.9016
2024-03-30T02:49:58.942Z,2.0960
2024-03-30T02:51:00.390Z,2.1770
2024-03-30T02:52:01.911Z,1.8989
2024-03-30T02:53:03.531Z,2.1138
2024-03-30T02:54:04.987Z,1.9819
2024-03-30T02:55:06.499Z,2.0774
2024-03-30T02:56:08.024Z,2.0839
2024-03-30T02:57:09.553Z,2.3414
2024-03-30T02:58:11.074Z,2.3130
2024-03-30T02:59:12.737Z,2.0394
2024-03-30T03:00:14.164Z,2.1525
2024-03-30T03:01:15.691Z,1.8715
2024-03-30T03:02:17.199Z,1.9457
2024-03-30T03:03:18.724Z,2.0058
2024-03-30T03:04:20.261Z,2.1671
2024-03-30T03:05:21.792Z,1.9788
2024-03-30T03:06:23.322Z,1.8503
2024-03-30T03:07:24.841Z,2.1332
2024-03-30T03:08:26.391Z,2.1810
2024-03-30T03:09:27.909Z,2.3100
2024-03-30T03:10:29.516Z,2.1163
2024-03-30T03:11:30.969Z,2.2149
2024-03-30T03:12:32.511Z,1.9317
2024-03-30T03:13:34.032Z,2.0307
2024-03-30T03:14:35.654Z,2.2884
2024-03-30T03:15:37.185Z,2.2632
2024-03-30T03:16:38.643Z,2.1093
2024-03-30T03:17:40.174Z,2.3343
2024-03-30T03:18:41.678Z,2.2451
2024-03-30T03:19:43.219Z,2.0619
2024-03-30T03:20:44.826Z,2.4745
2024-03-30T03:21:46.269Z,2.4645
2024-03-30T03:22:47.810Z,2.2559
2024-03-30T03:23:49.324Z,2.0432
2024-03-30T03:24:50.882Z,2.1220
2024-03-30T03:25:52.460Z,2.1271
2024-03-30T03:26:53.932Z,1.7921
2024-03-30T03:27:55.466Z,1.5394
2024-03-30T03:28:57.077Z,1.9785
2024-03-30T03:29:58.515Z,2.0471
2024-03-30T03:31:00.118Z,2.0345
2024-03-30T03:32:01.672Z,1.7312
2024-03-30T03:33:03.245Z,2.0568
2024-03-30T03:34:04.690Z,1.9905
2024-03-30T03:35:06.236Z,1.8121
2024-03-30T03:36:07.728Z,1.9106
2024-03-30T03:37:09.350Z,2.1157
2024-03-30T03:38:10.802Z,1.9218
2024-03-30T03:39:12.350Z,1.9568
2024-03-30T03:40:13.862Z,1.9777
2024-03-30T03:41:15.392Z,2.0101
2024-03-30T03:42:16.916Z,2.1150
2024-03-30T03:43:18.446Z,1.8053
2024-03-30T03:44:19.976Z,2.0798
2024-03-30T03:45:21.520Z,2.1155
2024-03-30T03:46:23.021Z,2.2279
2024-03-30T03:47:24.638Z,2.2323
2024-03-30T03:48:26.112Z,2.1719
2024-03-30T03:49:27.618Z,1.9856
2024-03-30T03:50:29.221Z,2.1604
2024-03-30T03:51:30.658Z,2.0003
2024-03-30T03:52:32.213Z,1.7257
2024-03-30T03:53:33.728Z,1.7570
2024-03-30T03:54:35.347Z,2.0096
2024-03-30T03:55:36.778Z,2.1039
2024-03-30T03:56:38.334Z,2.1955
2024-03-30T03:57:39.859Z,1.9816
2024-03-30T03:58:41.386Z,1.9329
2024-03-30T03:59:42.922Z,2.0893
2024-03-30T04:00:44.501Z,2.1507
2024-03-30T04:01:45.974Z,1.9539
2024-03-30T04:02:47.542Z,2.1206
2024-03-30T04:03:49.025Z,2.1243
2024-03-30T04:04:50.543Z,2.0413
2024-03-30T04:05:52.105Z,1.7378
2024-03-30T04:06:53.635Z,2.3335
2024-03-30T04:07:55.129Z,2.2260
2024-03-30T04:08:56.798Z,2.0493
2024-03-30T04:09:58.188Z,2.3804
2024-03-30T04:10:59.716Z,2.0620
2024-03-30T04:12:01.334Z,2.2398
2024-03-30T04:13:02.776Z,2.0319
2024-03-30T04:14:04.335Z,2.1507
2024-03-30T04:15:05.852Z,1.8934
2024-03-30T04:16:07.376Z,2.0168
2024-03-30T04:17:09.001Z,1.7755
2024-03-30T04:18:10.428Z,1.8652
2024-03-30T04:19:11.980Z,2.0742
2024-03-30T04:20:13.508Z,1.9317
2024-03-30T04:21:15.044Z,1.9906
2024-03-30T04:22:16.585Z,1.9104
2024-03-30T04:23:18.114Z,1.8857
2024-03-30T04:24:19.703Z,1.8185
2024-03-30T04:25:21.170Z,1.9398
2024-03-30T04:26:22.702Z,2.2579
2024-03-30T04:27:24.242Z,2.0665
2024-03-30T04:28:25.782Z,1.9543
2024-03-30T04:29:27.282Z,2.0047
2024-03-30T04:30:28.827Z,2.1322
2024-03-30T04:31:30.450Z,1.9977
2024-03-30T04:32:31.885Z,1.8116
2024-03-30T04:33:33.406Z,1.8728
2024-03-30T04:34:34.940Z,1.7935
2024-03-30T04:35:36.484Z,2.1412
2024-03-30T04:36:37.988Z,1.8932
2024-03-30T04:37:39.525Z,2.0189
2024-03-30T04:38:41.052Z,2.0356
2024-03-30T04:39:42.640Z,1.8393
2024-03-30T04:40:44.133Z,1.9769
2024-03-30T04:41:45.642Z,1.9803
2024-03-30T04:42:47.161Z,1.5814
2024-03-30T04:43:48.692Z,1.7625
2024-03-30T04:44:50.232Z,1.9458
2024-03-30T04:45:51.834Z,2.0453
2024-03-30T04:46:53.280Z,1.5099
2024-03-30T04:47:54.817Z,1.8424
2024-03-30T04:48:56.411Z,1.8280
2024-03-30T04:49:57.886Z,1.8294
2024-03-30T04:50:59.440Z,1.9035
2024-03-30T04:52:00.945Z,1.9889
2024-03-30T04:53:02.480Z,1.8983
2024-03-30T04:54:04.011Z,2.0450
2024-03-30T04:55:05.543Z,1.8050
2024-03-30T04:56:07.134Z,1.8239
2024-03-30T04:57:08.619Z,1.8984
2024-03-30T04:58:10.137Z,1.8830
2024-03-30T04:59:11.672Z,1.8986
2024-03-30T05:00:13.184Z,1.9272
2024-03-30T05:01:14.714Z,2.0348
2024-03-30T05:02:16.251Z,1.7652
2024-03-30T05:03:17.785Z,1.9111
2024-03-30T05:04:19.327Z,1.9908
2024-03-30T05:05:20.832Z,1.8283
2024-03-30T05:06:22.376Z,1.8408
2024-03-30T05:07:23.909Z,1.7803
2024-03-30T05:08:25.435Z,1.6938
2024-03-30T05:09:26.972Z,1.9163
2024-03-30T05:10:28.569Z,1.7728
2024-03-30T05:11:30.016Z,2.0076
2024-03-30T05:12:31.531Z,1.8400
2024-03-30T05:13:33.065Z,1.8247
2024-03-30T05:14:34.622Z,1.7225
2024-03-30T05:15:36.193Z,1.7976
2024-03-30T05:16:40.435Z,1.8086
2024-03-30T05:17:39.215Z,1.9222
2024-03-30T05:18:40.729Z,1.8100
2024-03-30T05:19:42.242Z,1.5742
2024-03-30T05:20:43.845Z,1.9491
2024-03-30T05:21:45.290Z,1.8223
2024-03-30T05:22:46.845Z,1.7667
2024-03-30T05:23:48.351Z,2.0173
2024-03-30T05:24:49.904Z,1.7881
2024-03-30T05:25:51.411Z,2.0154
2024-03-30T05:26:52.948Z,1.7147
2024-03-30T05:27:54.532Z,1.8396
2024-03-30T05:28:56.033Z,2.2889
2024-03-30T05:29:57.523Z,1.9155
2024-03-30T05:30:59.070Z,1.5502
2024-03-30T05:32:00.583Z,2.1810
2024-03-30T05:33:02.152Z,1.8126
2024-03-30T05:34:03.644Z,2.0575
2024-03-30T05:35:05.174Z,1.9899
2024-03-30T05:36:06.783Z,1.7252
2024-03-30T05:37:08.240Z,1.5907
2024-03-30T05:38:09.767Z,2.0287
2024-03-30T05:39:11.372Z,1.7814
2024-03-30T05:40:12.818Z,1.8586
2024-03-30T05:41:14.365Z,1.7549
2024-03-30T05:42:15.865Z,1.7582
2024-03-30T05:43:17.417Z,1.8391
2024-03-30T05:44:18.999Z,2.2745
2024-03-30T05:45:20.479Z,1.7381
2024-03-30T05:46:21.993Z,2.0158
2024-03-30T05:47:23.547Z,2.1101
2024-03-30T05:48:25.068Z,1.8869
2024-03-30T05:49:26.691Z,1.5745
2024-03-30T05:50:28.162Z,1.7643
2024-03-30T05:51:29.651Z,2.0765
2024-03-30T05:52:31.223Z,1.9421
2024-03-30T05:53:32.780Z,1.5090
2024-03-30T05:54:34.254Z,1.7934
2024-03-30T05:55:35.774Z,1.9680
2024-03-30T05:56:37.329Z,1.6450
2024-03-30T05:57:38.841Z,1.9789
2024-03-30T05:58:40.378Z,2.0262
2024-03-30T05:59:41.919Z,2.0267
2024-03-30T06:00:43.423Z,1.7097
2024-03-30T06:01:45.013Z,1.7769
2024-03-30T06:02:46.597Z,1.7604
2024-03-30T06:03:48.032Z,1.9066
2024-03-30T06:04:49.544Z,2.0494
2024-03-30T06:05:51.087Z,1.8174
2024-03-30T06:06:52.612Z,1.8270
2024-03-30T06:07:54.157Z,1.7831
2024-03-30T06:08:55.682Z,1.9920
2024-03-30T06:09:57.218Z,1.9164
2024-03-30T06:10:58.833Z,1.7199
2024-03-30T06:12:00.292Z,1.7275
2024-03-30T06:13:01.782Z,1.8332
2024-03-30T06:14:03.319Z,1.7362
2024-03-30T06:15:04.841Z,1.7089
2024-03-30T06:16:06.374Z,1.5095
2024-03-30T06:17:07.985Z,1.8031
2024-03-30T06:18:09.449Z,1.5727
2024-03-30T06:19:10.952Z,1.5493
2024-03-30T06:20:12.484Z,1.5289
2024-03-30T06:21:14.000Z,1.7435
2024-03-30T06:22:15.537Z,2.1480
2024-03-30T06:23:17.056Z,1.7372
2024-03-30T06:24:18.680Z,1.7961
2024-03-30T06:25:20.111Z,1.5042
2024-03-30T06:26:21.680Z,2.0686
2024-03-30T06:27:23.194Z,1.7233
2024-03-30T06:28:24.690Z,1.6601
2024-03-30T06:29:27.442Z,1.7732
2024-03-30T06:30:27.886Z,1.7854
2024-03-30T06:31:29.285Z,1.9441
2024-03-30T06:32:30.808Z,2.0800
2024-03-30T06:33:32.332Z,2.0234
2024-03-30T06:34:33.861Z,1.7257
2024-03-30T06:35:35.474Z,1.6471
2024-03-30T06:36:36.930Z,1.6323
2024-03-30T06:37:38.446Z,1.8448
2024-03-30T06:38:39.987Z,1.8478
2024-03-30T06:39:41.499Z,1.9337
2024-03-30T06:40:43.052Z,1.7413
2024-03-30T06:41:44.570Z,1.7216
2024-03-30T06:42:46.109Z,1.6058
2024-03-30T06:43:51.404Z,2.0879
2024-03-30T06:44:49.218Z,1.9181
2024-03-30T06:45:50.703Z,1.8382
2024-03-30T06:46:52.196Z,1.9131
2024-03-30T06:47:53.732Z,1.6742
2024-03-30T06:48:55.283Z,2.0768
2024-03-30T06:49:56.778Z,2.0806
2024-03-30T06:50:58.343Z,1.6145
2024-03-30T06:51:59.846Z,2.2019
2024-03-30T06:53:01.374Z,2.1119
2024-03-30T06:54:02.948Z,1.8142
2024-03-30T06:55:04.404Z,1.9125
2024-03-30T06:56:06.020Z,2.1609
2024-03-30T06:57:07.490Z,1.9435
2024-03-30T06:58:08.996Z,2.3469
2024-03-30T06:59:10.520Z,2.0380
2024-03-30T07:00:12.066Z,1.8799
2024-03-30T07:01:13.682Z,1.9063
2024-03-30T07:02:15.116Z,1.9411
2024-03-30T07:03:16.642Z,1.8772
2024-03-30T07:04:18.153Z,1.8506
2024-03-30T07:05:19.688Z,2.0205
2024-03-30T07:06:21.214Z,2.1502
2024-03-30T07:07:22.742Z,2.0740
2024-03-30T07:08:24.375Z,1.9565
2024-03-30T07:09:25.807Z,2.1350
2024-03-30T07:10:27.326Z,2.0852
2024-03-30T07:11:28.852Z,1.8429
2024-03-30T07:12:32.750Z,1.8741
2024-03-30T07:13:31.895Z,2.4167
2024-03-30T07:14:33.517Z,1.9670
2024-03-30T07:15:34.975Z,2.1881
2024-03-30T07:16:36.567Z,2.2577
2024-03-30T07:17:38.038Z,2.3191
2024-03-30T07:18:39.542Z,2.2312
2024-03-30T07:19:41.095Z,2.2930
2024-03-30T07:20:42.609Z,1.8916
2024-03-30T07:21:44.105Z,2.0826
2024-03-30T07:22:45.732Z,2.1673
2024-03-30T07:23:47.180Z,1.8064
2024-03-30T07:24:48.702Z,1.9994
2024-03-30T07:25:50.240Z,1.9732
2024-03-30T07:26:51.751Z,2.0746
2024-03-30T07:27:53.268Z,1.9509
2024-03-30T07:28:54.924Z,2.4446
2024-03-30T07:29:56.351Z,1.8808
2024-03-30T07:30:57.867Z,1.8434
2024-03-30T07:31:59.395Z,2.0261
2024-03-30T07:33:01.020Z,2.0220
2024-03-30T07:34:02.527Z,2.2025
2024-03-30T07:35:04.089Z,2.2616
2024-03-30T07:36:05.622Z,2.0964
2024-03-30T07:37:07.220Z,2.0975
2024-03-30T07:38:08.629Z,2.1126
2024-03-30T07:39:10.175Z,2.1511
2024-03-30T07:40:11.713Z,2.1857
2024-03-30T07:41:13.233Z,2.1092
2024-03-30T07:42:14.772Z,1.8844
2024-03-30T07:43:16.286Z,1.9387
2024-03-30T07:44:17.829Z,2.0128
2024-03-30T07:45:19.338Z,2.3554
2024-03-30T07:46:20.943Z,2.1091
2024-03-30T07:47:22.375Z,2.0408
2024-03-30T07:48:23.918Z,2.0975
2024-03-30T07:49:25.434Z,2.0708
2024-03-30T07:50:27.015Z,2.0786
2024-03-30T07:51:28.503Z,2.1591
2024-03-30T07:52:30.036Z,2.0619
2024-03-30T07:53:31.589Z,1.9184
2024-03-30T07:54:33.166Z,2.2551
2024-03-30T07:55:34.651Z,2.2721
2024-03-30T07:56:36.159Z,2.1466
2024-03-30T07:57:37.727Z,2.3688
2024-03-30T07:58:39.203Z,2.1915
2024-03-30T07:59:40.733Z,2.1201
2024-03-30T08:00:42.289Z,1.9958
2024-03-30T08:01:43.804Z,2.1540
2024-03-30T08:02:45.349Z,2.1970
2024-03-30T08:03:46.877Z,1.8969
2024-03-30T08:04:48.400Z,2.0808
2024-03-30T08:05:50.010Z,1.9627
2024-03-30T08:06:51.476Z,1.9235
2024-03-30T08:07:53.113Z,2.1119
2024-03-30T08:08:54.533Z,2.1273
2024-03-30T08:09:56.061Z,2.2792
2024-03-30T08:10:57.599Z,2.4746
2024-03-30T08:11:59.148Z,2.2632
2024-03-30T08:13:00.680Z,2.3765
2024-03-30T08:14:02.210Z,2.0088
2024-03-30T08:15:03.735Z,2.3538
2024-03-30T08:16:05.263Z,2.3258
2024-03-30T08:17:06.802Z,2.3100
2024-03-30T08:18:08.319Z,2.3164
2024-03-30T08:19:09.837Z,2.1474
2024-03-30T08:20:11.389Z,2.3323
2024-03-30T08:21:12.913Z,2.4218
2024-03-30T08:22:14.430Z,2.1374
2024-03-30T08:23:16.057Z,2.0924
2024-03-30T08:24:17.498Z,2.6165
2024-03-30T08:25:19.033Z,2.2668
2024-03-30T08:26:20.607Z,1.9581
2024-03-30T08:27:24.131Z,2.0789
2024-03-30T08:28:23.609Z,2.0281
2024-03-30T08:29:25.152Z,2.2495
2024-03-30T08:30:26.753Z,2.3040
2024-03-30T08:31:28.211Z,2.2726
2024-03-30T08:32:29.743Z,2.3707
2024-03-30T08:33:31.276Z,2.3735
2024-03-30T08:34:32.814Z,1.9074
2024-03-30T08:35:34.452Z,2.3425
2024-03-30T08:36:35.889Z,1.9865
2024-03-30T08:37:37.412Z,2.2738
2024-03-30T08:38:38.934Z,2.2399
2024-03-30T08:39:40.539Z,2.2741
2024-03-30T08:40:41.999Z,2.0437
2024-03-30T08:41:43.559Z,2.2817
2024-03-30T08:42:45.062Z,2.1731
2024-03-30T08:43:46.631Z,2.3098
2024-03-30T08:44:48.165Z,2.1529
2024-03-30T08:45:49.644Z,2.0491
2024-03-30T08:46:51.202Z,2.0618
2024-03-30T08:47:52.705Z,1.9982
2024-03-30T08:48:54.267Z,2.0967
2024-03-30T08:49:55.853Z,2.0649
2024-03-30T08:50:57.311Z,2.2544
2024-03-30T08:51:58.850Z,2.2584
2024-03-30T08:53:00.448Z,2.5942
2024-03-30T08:54:01.928Z,2.3324
2024-03-30T08:55:03.426Z,2.0068
2024-03-30T08:56:04.961Z,2.1220
2024-03-30T08:57:06.535Z,2.2856
2024-03-30T08:58:08.007Z,2.3570
2024-03-30T08:59:09.551Z,2.2118
2024-03-30T09:00:11.150Z,1.8802
2024-03-30T09:01:12.642Z,2.0845
2024-03-30T09:02:14.137Z,2.1464
2024-03-30T09:03:15.664Z,1.9423
2024-03-30T09:04:17.263Z,1.9470
2024-03-30T09:05:18.725Z,1.9125
2024-03-30T09:06:20.250Z,1.9466
2024-03-30T09:07:21.833Z,2.0408
2024-03-30T09:08:23.326Z,1.9618
2024-03-30T09:09:24.858Z,2.0155
2024-03-30T09:10:26.385Z,2.2198
2024-03-30T09:11:27.979Z,2.3058
2024-03-30T09:12:29.434Z,1.9510
2024-03-30T09:13:30.988Z,2.5328
2024-03-30T09:14:32.565Z,2.3431
2024-03-30T09:15:34.019Z,2.2130
2024-03-30T09:16:35.542Z,1.9542
2024-03-30T09:17:37.077Z,2.5320
2024-03-30T09:18:38.614Z,2.4737
2024-03-30T09:19:40.130Z,2.4578
2024-03-30T09:20:41.665Z,1.7939
2024-03-30T09:21:43.197Z,1.8233
2024-03-30T09:22:44.737Z,2.0205
2024-03-30T09:23:46.316Z,2.3919
2024-03-30T09:24:47.816Z,2.4482
2024-03-30T09:25:49.309Z,2.3210
2024-03-30T09:26:50.847Z,2.3115
2024-03-30T09:27:52.356Z,2.3076
2024-03-30T09:28:53.894Z,2.2549
2024-03-30T09:29:55.440Z,2.3250
2024-03-30T09:30:56.950Z,2.1912
2024-03-30T09:31:58.478Z,2.3096
2024-03-30T09:33:00.087Z,2.1480
2024-03-30T09:34:01.549Z,2.2032
2024-03-30T09:35:03.143Z,2.1313
2024-03-30T09:36:04.606Z,2.2547
2024-03-30T09:37:06.140Z,2.1747
2024-03-30T09:38:07.683Z,2.5012
2024-03-30T09:39:09.232Z,2.3869
2024-03-30T09:40:10.724Z,2.1961
2024-03-30T09:41:12.248Z,2.1235
2024-03-30T09:42:13.801Z,2.2885
2024-03-30T09:43:15.427Z,2.1501
2024-03-30T09:44:16.880Z,1.9073
2024-03-30T09:45:18.390Z,2.1206
2024-03-30T09:46:19.944Z,2.0818
2024-03-30T09:47:21.433Z,2.2681
2024-03-30T09:48:22.963Z,2.3394
2024-03-30T09:49:24.569Z,2.3078
2024-03-30T09:50:26.020Z,1.9283
2024-03-30T09:51:27.544Z,2.1452
2024-03-30T09:52:29.085Z,1.9738
2024-03-30T09:53:30.624Z,2.1945
2024-03-30T09:54:32.146Z,2.3569
2024-03-30T09:55:33.737Z,2.2212
2024-03-30T09:56:35.214Z,1.9775
2024-03-30T09:57:37.375Z,2.2265
2024-03-30T09:58:38.253Z,2.0457
2024-03-30T09:59:39.884Z,2.2718
2024-03-30T10:00:41.367Z,1.8930
2024-03-30T10:01:42.830Z,2.0720
2024-03-30T10:02:44.473Z,2.4084
2024-03-30T10:03:45.995Z,2.4351
2024-03-30T10:04:47.419Z,2.0107
2024-03-30T10:05:48.961Z,1.8510
2024-03-30T10:06:50.510Z,2.2389
2024-03-30T10:07:52.047Z,2.0632
2024-03-30T10:08:53.636Z,2.3978
2024-03-30T10:09:55.091Z,2.3493
2024-03-30T10:10:56.605Z,2.2633
2024-03-30T10:11:58.128Z,2.4062
2024-03-30T10:12:59.664Z,2.3354
2024-03-30T10:14:07.355Z,2.1549
2024-03-30T10:15:02.717Z,1.9959
2024-03-30T10:16:04.379Z,2.4627
2024-03-30T10:17:05.786Z,2.4147
2024-03-30T10:18:07.324Z,2.3497
2024-03-30T10:19:08.848Z,1.8889
2024-03-30T10:20:10.370Z,1.8889
2024-03-30T10:21:11.899Z,2.3407
2024-03-30T10:22:13.425Z,2.1709
2024-03-30T10:23:14.955Z,2.0525
2024-03-30T10:24:16.549Z,2.2107
2024-03-30T10:25:18.003Z,2.1023
2024-03-30T10:26:19.537Z,2.3918
2024-03-30T10:27:21.064Z,2.2624
2024-03-30T10:28:22.619Z,2.2562
2024-03-30T10:29:24.134Z,2.1608
2024-03-30T10:30:25.649Z,1.9149
2024-03-30T10:31:27.196Z,2.1769
2024-03-30T10:32:28.865Z,2.1143
2024-03-30T10:33:30.263Z,1.9527
2024-03-30T10:34:31.781Z,1.9227
2024-03-30T10:35:33.435Z,2.0904
2024-03-30T10:36:34.838Z,2.1365
2024-03-30T10:37:36.395Z,2.0742
2024-03-30T10:38:37.896Z,2.0361
2024-03-30T10:39:39.447Z,2.0548
2024-03-30T10:40:40.982Z,2.1456
2024-03-30T10:41:42.575Z,1.9943
2024-03-30T10:42:44.047Z,2.1600
2024-03-30T10:43:45.554Z,2.2961
2024-03-30T10:44:47.118Z,1.9038
2024-03-30T10:45:48.627Z,2.0721
2024-03-30T10:46:50.177Z,2.1967
2024-03-30T10:47:51.679Z,2.1035
2024-03-30T10:48:53.213Z,1.9567
2024-03-30T10:49:54.752Z,2.0211
2024-03-30T10:50:56.284Z,2.1936
2024-03-30T10:51:57.816Z,2.0197
2024-03-30T10:52:59.347Z,2.2794
2024-03-30T10:54:00.880Z,2.1873
2024-03-30T10:55:02.480Z,2.0952
2024-03-30T10:56:03.969Z,2.0941
2024-03-30T10:57:05.460Z,1.9578
2024-03-30T10:58:06.987Z,2.3341
2024-03-30T10:59:08.532Z,2.1842
2024-03-30T11:00:10.047Z,2.2998
2024-03-30T11:01:11.577Z,2.4216
2024-03-30T11:02:13.152Z,2.2893
2024-03-30T11:03:14.694Z,2.1702
2024-03-30T11:04:16.163Z,1.9141
2024-03-30T11:05:17.716Z,2.3254
2024-03-30T11:06:19.227Z,2.1521
2024-03-30T11:07:20.773Z,2.1541
2024-03-30T11:08:22.296Z,2.3380
2024-03-30T11:09:23.805Z,2.0314
2024-03-30T11:10:25.354Z,2.3134
2024-03-30T11:11:26.896Z,2.3634
2024-03-30T11:12:28.402Z,2.2398
2024-03-30T11:13:29.909Z,2.3824
2024-03-30T11:14:31.451Z,2.1954
2024-03-30T11:15:33.048Z,2.0894
2024-03-30T11:16:34.499Z,2.3126
2024-03-30T11:17:36.024Z,2.4091
2024-03-30T11:18:37.576Z,2.1628
2024-03-30T11:19:39.077Z,2.1917
2024-03-30T11:20:40.605Z,2.3184
2024-03-30T11:21:42.159Z,2.1663
2024-03-30T11:22:43.648Z,2.2810
2024-03-30T11:23:45.265Z,2.3009
2024-03-30T11:24:46.751Z,2.1238
2024-03-30T11:25:48.241Z,2.0933
2024-03-30T11:26:49.783Z,1.9985
2024-03-30T11:27:51.319Z,2.0695
2024-03-30T11:28:52.832Z,2.1722
2024-03-30T11:29:54.358Z,2.2710
2024-03-30T11:30:55.894Z,2.4838
2024-03-30T11:31:57.498Z,2.3482
2024-03-30T11:32:58.947Z,2.1027
2024-03-30T11:34:00.476Z,2.5461
2024-03-30T11:35:03.472Z,2.3420
2024-03-30T11:36:03.589Z,2.3493
2024-03-30T11:37:05.129Z,2.6895
2024-03-30T11:38:06.639Z,2.0920
2024-03-30T11:39:08.284Z,2.2236
2024-03-30T11:40:09.711Z,2.4601
2024-03-30T11:41:11.247Z,2.4831
2024-03-30T11:42:12.778Z,2.5853
2024-03-30T11:43:14.296Z,2.1916
2024-03-30T11:44:15.816Z,2.1223
2024-03-30T11:45:17.342Z,2.4002
2024-03-30T11:46:18.969Z,2.2895
2024-03-30T11:47:20.420Z,2.2517
2024-03-30T11:48:21.948Z,2.2222
2024-03-30T11:49:23.509Z,2.3175
2024-03-30T11:50:25.005Z,2.6227
2024-03-30T11:51:26.540Z,2.8991
2024-03-30T11:52:28.038Z,2.6320
2024-03-30T11:53:29.600Z,2.6156
2024-03-30T11:54:31.120Z,2.3906
2024-03-30T11:55:32.658Z,2.3726
2024-03-30T11:56:34.186Z,2.5535
2024-03-30T11:57:35.765Z,2.6886
2024-03-30T11:58:38.872Z,2.8189
2024-03-30T11:59:38.787Z,2.4437
2024-03-30T12:00:40.302Z,2.3108
2024-03-30T12:01:41.843Z,2.1961
2024-03-30T12:02:43.353Z,2.4505
2024-03-30T12:03:44.888Z,2.1726
2024-03-30T12:04:46.430Z,2.3594
2024-03-30T12:05:47.957Z,2.5886
2024-03-30T12:06:49.472Z,2.7430
2024-03-30T12:07:51.023Z,2.7858
2024-03-30T12:08:52.560Z,2.4890
2024-03-30T12:09:54.109Z,2.7379
2024-03-30T12:10:55.643Z,2.7059
2024-03-30T12:11:57.150Z,2.6680
2024-03-30T12:12:58.694Z,3.2570
2024-03-30T12:14:00.201Z,3.2559
2024-03-30T12:15:01.764Z,2.9369
2024-03-30T12:16:03.272Z,3.2194
2024-03-30T12:17:04.805Z,3.4304
2024-03-30T12:18:06.299Z,3.2367
2024-03-30T12:19:07.847Z,3.7356
2024-03-30T12:20:09.395Z,3.8727
2024-03-30T12:21:10.991Z,3.5401
2024-03-30T12:22:13.343Z,3.6513
2024-03-30T12:23:24.589Z,3.8065
2024-03-30T12:24:17.245Z,3.2873
2024-03-30T12:25:20.221Z,4.0307
2024-03-30T12:26:21.191Z,4.3831
2024-03-30T12:27:20.115Z,4.6353
2024-03-30T12:30:14.086Z,4.7225
2024-03-30T12:31:18.195Z,4.8345
2024-03-30T12:32:18.302Z,4.1273
2024-03-30T12:33:29.214Z,4.5205
2024-03-30T12:34:21.417Z,4.5296
2024-03-30T12:35:22.919Z,5.8232
2024-03-30T12:36:26.284Z,4.8808
2024-03-30T12:37:32.672Z,5.3451
2024-03-30T12:38:31.182Z,4.7093
2024-03-30T12:39:29.762Z,5.6697
2024-03-30T12:40:33.241Z,5.4769
2024-03-30T12:41:32.244Z,5.4824
2024-03-30T12:42:35.213Z,4.8940
2024-03-30T12:43:35.121Z,5.2507
2024-03-30T13:01:40.248Z,5.0842
2024-03-30T13:01:40.248Z,5.3894
2024-03-30T13:07:45.992Z,5.5009
2024-03-30T13:07:45.992Z,6.2386
2024-03-30T13:08:49.773Z,6.4270
2024-03-30T13:09:51.316Z,5.5827